Time;durP1;ratioP1;P1;durP2;ratioP2;P2;SDS_P1;SDS_P2;PMS_P1;PMS_P2;Temp;Humidity;BMP_temperature;BMP_pressure;BME280_temperature;BME280_humidity;BME280_pressure;Samples;Min_cycle;Max_cycle;Signal;HPM_P1;HPM_P2
2023/04/13 00:02:22;;;;;;;;;;;18.80;46.70;;;;;;5003559;28;20298;-54
2023/04/13 00:04:50;;;;;;;;;;;18.80;46.70;;;;;;5025359;28;19917;-54
2023/04/13 00:07:17;;;;;;;;;;;18.80;46.60;;;;;;4993359;28;19920;-54
2023/04/13 00:09:44;;;;;;;;;;;18.80;46.70;;;;;;4992899;28;19961;-54
2023/04/13 00:12:09;;;;;;;;;;;18.80;46.70;;;;;;5005903;28;20410;-54
2023/04/13 00:14:35;;;;;;;;;;;18.80;46.80;;;;;;5011408;28;19955;-54
2023/04/13 00:17:01;;;;;;;;;;;18.70;46.60;;;;;;5005808;28;20378;-54
2023/04/13 00:19:27;;;;;;;;;;;18.70;46.60;;;;;;4988780;28;19925;-54
2023/04/13 00:21:53;;;;;;;;;;;18.70;46.50;;;;;;4989835;28;19914;-54
2023/04/13 00:24:18;;;;;;;;;;;18.70;46.60;;;;;;4994375;28;20396;-54
2023/04/13 00:26:44;;;;;;;;;;;18.70;46.50;;;;;;4976510;28;20025;-54
2023/04/13 00:29:10;;;;;;;;;;;18.70;46.60;;;;;;4991938;28;20004;-54
2023/04/13 00:31:36;;;;;;;;;;;18.70;46.60;;;;;;5000022;28;19913;-54
2023/04/13 00:34:02;;;;;;;;;;;18.60;46.50;;;;;;4992047;28;19937;-54
2023/04/13 00:36:28;;;;;;;;;;;18.60;46.50;;;;;;4996514;28;20362;-54
2023/04/13 00:38:56;;;;;;;;;;;18.60;46.40;;;;;;4990198;28;19974;-55
2023/04/13 00:41:23;;;;;;;;;;;18.60;46.40;;;;;;4995429;28;20398;-54
2023/04/13 00:43:48;;;;;;;;;;;18.60;46.50;;;;;;4991991;28;19914;-55
2023/04/13 00:46:15;;;;;;;;;;;18.60;46.40;;;;;;5017397;28;20271;-54
2023/04/13 00:48:40;;;;;;;;;;;18.60;46.50;;;;;;4993486;28;19948;-54
2023/04/13 00:51:06;;;;;;;;;;;18.60;46.60;;;;;;5000120;28;19913;-54
2023/04/13 00:53:32;;;;;;;;;;;18.50;46.50;;;;;;5009268;28;19913;-54
2023/04/13 00:55:58;;;;;;;;;;;18.50;46.60;;;;;;4992940;28;19909;-54
2023/04/13 00:58:25;;;;;;;;;;;18.50;46.60;;;;;;4992737;28;19929;-54
2023/04/13 01:00:50;;;;;;;;;;;18.40;46.50;;;;;;5017455;28;19917;-54
2023/04/13 01:03:16;;;;;;;;;;;18.40;46.50;;;;;;4995580;28;20460;-54
2023/04/13 01:05:49;;;;;;;;;;;18.40;46.50;;;;;;4996901;28;19968;-54
2023/04/13 01:08:26;;;;;;;;;;;18.40;46.50;;;;;;5017498;28;19909;-54
2023/04/13 01:11:02;;;;;;;;;;;18.40;46.60;;;;;;4993551;28;19924;-54
2023/04/13 01:13:29;;;;;;;;;;;18.40;46.50;;;;;;5007444;28;19954;-54
2023/04/13 01:16:05;;;;;;;;;;;18.40;46.60;;;;;;4997137;28;20168;-54
2023/04/13 01:18:32;;;;;;;;;;;18.40;46.50;;;;;;5024783;28;19914;-55
2023/04/13 01:20:57;;;;;;;;;;;18.50;46.50;;;;;;5005482;28;19925;-53
2023/04/13 01:23:30;;;;;;;;;;;18.50;46.50;;;;;;4995199;28;19913;-54
2023/04/13 01:25:57;;;;;;;;;;;18.50;46.40;;;;;;5034821;28;19918;-54
2023/04/13 01:28:23;;;;;;;;;;;18.60;46.20;;;;;;5026254;28;19960;-54
2023/04/13 01:30:48;;;;;;;;;;;18.70;46.10;;;;;;4999591;28;19913;-54
2023/04/13 01:33:15;;;;;;;;;;;18.80;45.90;;;;;;5006528;28;20012;-54
2023/04/13 01:35:40;;;;;;;;;;;18.90;45.70;;;;;;4995789;28;19917;-54
2023/04/13 01:38:05;;;;;;;;;;;19.00;45.50;;;;;;4988851;28;20381;-54
2023/04/13 01:40:33;;;;;;;;;;;19.10;45.40;;;;;;5013791;28;19924;-54
2023/04/13 01:42:59;;;;;;;;;;;19.10;45.40;;;;;;5012984;28;19910;-54
2023/04/13 01:45:35;;;;;;;;;;;19.10;45.40;;;;;;5012194;28;19917;-54
2023/04/13 01:48:01;;;;;;;;;;;19.00;45.40;;;;;;5007365;28;19957;-53
2023/04/13 01:50:27;;;;;;;;;;;19.00;45.40;;;;;;4978201;28;20432;-54
2023/04/13 01:52:54;;;;;;;;;;;19.00;45.40;;;;;;4995137;28;20008;-54
2023/04/13 01:55:20;;;;;;;;;;;19.00;45.40;;;;;;5008719;28;19914;-54
2023/04/13 01:57:47;;;;;;;;;;;19.10;45.40;;;;;;5008717;28;20040;-54
2023/04/13 02:00:12;;;;;;;;;;;19.10;45.20;;;;;;5026390;28;19922;-56
2023/04/13 02:02:38;;;;;;;;;;;19.10;45.10;;;;;;5035595;28;19929;-53
2023/04/13 02:05:04;;;;;;;;;;;19.20;45.00;;;;;;4984928;28;20391;-54
2023/04/13 02:07:29;;;;;;;;;;;19.30;44.90;;;;;;5008164;28;20422;-54
2023/04/13 02:09:55;;;;;;;;;;;19.30;44.70;;;;;;4994162;28;20393;-54
2023/04/13 02:12:20;;;;;;;;;;;19.30;44.50;;;;;;5006850;28;19917;-54
2023/04/13 02:14:46;;;;;;;;;;;19.40;44.50;;;;;;5001937;28;19921;-54
2023/04/13 02:17:11;;;;;;;;;;;19.40;44.40;;;;;;5011125;28;19914;-53
2023/04/13 02:19:36;;;;;;;;;;;19.40;44.40;;;;;;5004606;28;19918;-54
2023/04/13 02:22:02;;;;;;;;;;;19.40;44.20;;;;;;4988272;28;19921;-53
2023/04/13 02:24:29;;;;;;;;;;;19.50;44.20;;;;;;4989494;28;20005;-53
2023/04/13 02:26:55;;;;;;;;;;;19.40;44.10;;;;;;4989178;28;19925;-54
2023/04/13 02:29:21;;;;;;;;;;;19.40;44.20;;;;;;4997187;28;19921;-54
2023/04/13 02:31:47;;;;;;;;;;;19.40;44.10;;;;;;5004763;28;19920;-54
2023/04/13 02:34:13;;;;;;;;;;;19.50;44.80;;;;;;4998642;28;19972;-53
2023/04/13 02:36:39;;;;;;;;;;;19.40;44.20;;;;;;5010504;28;19949;-54
2023/04/13 02:39:05;;;;;;;;;;;19.40;44.20;;;;;;4986884;28;20421;-54
2023/04/13 02:41:30;;;;;;;;;;;19.40;44.30;;;;;;4989567;28;19913;-53
2023/04/13 02:43:55;;;;;;;;;;;19.40;44.40;;;;;;5004257;28;19928;-54
2023/04/13 02:46:22;;;;;;;;;;;19.30;44.30;;;;;;5008244;28;20259;-54
2023/04/13 02:48:47;;;;;;;;;;;19.30;44.20;;;;;;5009824;28;20017;-54
2023/04/13 02:51:13;;;;;;;;;;;19.40;44.30;;;;;;5001545;28;20000;-55
2023/04/13 02:53:38;;;;;;;;;;;19.30;44.30;;;;;;4998240;28;19917;-54
2023/04/13 02:56:05;;;;;;;;;;;19.40;44.30;;;;;;4993049;28;19921;-54
2023/04/13 02:58:31;;;;;;;;;;;19.40;44.20;;;;;;5000022;28;19956;-55
2023/04/13 03:00:57;;;;;;;;;;;19.30;44.20;;;;;;4996032;28;20016;-53
2023/04/13 03:03:23;;;;;;;;;;;19.30;44.30;;;;;;4993870;28;19918;-54
2023/04/13 03:05:49;;;;;;;;;;;19.40;44.20;;;;;;5024522;28;19916;-54
2023/04/13 03:08:16;;;;;;;;;;;19.40;44.10;;;;;;4979055;28;20347;-55
2023/04/13 03:10:43;;;;;;;;;;;19.40;43.90;;;;;;4981133;28;20345;-53
2023/04/13 03:13:09;;;;;;;;;;;19.40;44.00;;;;;;4991331;28;19993;-53
2023/04/13 03:15:35;;;;;;;;;;;19.40;43.90;;;;;;4993690;28;20402;-53
2023/04/13 03:18:03;;;;;;;;;;;19.40;43.90;;;;;;4993372;28;19918;-54
2023/04/13 03:20:28;;;;;;;;;;;19.50;44.00;;;;;;4995094;28;19924;-54
2023/04/13 03:22:54;;;;;;;;;;;19.40;43.90;;;;;;4979785;28;19918;-53
2023/04/13 03:25:20;;;;;;;;;;;19.50;44.00;;;;;;5003811;28;20362;-54
2023/04/13 03:27:45;;;;;;;;;;;19.50;44.60;;;;;;5007176;28;19925;-55
2023/04/13 03:30:11;;;;;;;;;;;19.50;43.90;;;;;;4992137;28;19910;-54
2023/04/13 03:32:36;;;;;;;;;;;19.50;43.90;;;;;;5002349;28;19918;-54
2023/04/13 03:35:02;;;;;;;;;;;19.50;43.90;;;;;;5005794;28;19909;-54
2023/04/13 03:37:31;;;;;;;;;;;19.50;43.90;;;;;;5013083;28;20321;-54
2023/04/13 03:39:59;;;;;;;;;;;19.50;44.00;;;;;;5007334;28;19926;-54
2023/04/13 03:42:25;;;;;;;;;;;19.40;43.90;;;;;;4994079;28;19961;-54
2023/04/13 03:44:51;;;;;;;;;;;19.40;43.90;;;;;;5004046;28;19961;-54
2023/04/13 03:47:16;;;;;;;;;;;19.40;43.90;;;;;;5010808;28;20324;-54
2023/04/13 03:49:41;;;;;;;;;;;19.40;43.90;;;;;;4988484;28;19968;-54
2023/04/13 03:52:07;;;;;;;;;;;19.40;43.90;;;;;;5006438;28;19968;-53
2023/04/13 03:54:32;;;;;;;;;;;19.40;43.90;;;;;;4991905;28;19918;-54
2023/04/13 03:56:59;;;;;;;;;;;19.40;43.90;;;;;;4991755;28;20009;-54
2023/04/13 03:59:25;;;;;;;;;;;19.30;44.50;;;;;;5011776;28;19913;-54
2023/04/13 04:01:50;;;;;;;;;;;19.30;43.80;;;;;;5007193;28;19914;-53
2023/04/13 04:04:15;;;;;;;;;;;19.30;43.90;;;;;;5004109;28;20401;-54
2023/04/13 04:06:41;;;;;;;;;;;19.30;43.80;;;;;;4995530;28;20786;-54
2023/04/13 04:09:06;;;;;;;;;;;19.30;43.90;;;;;;4993258;28;20325;-54
2023/04/13 04:11:32;;;;;;;;;;;19.30;43.80;;;;;;4990878;28;20349;-54
2023/04/13 04:13:57;;;;;;;;;;;19.30;43.80;;;;;;5000963;28;20004;-54
2023/04/13 04:16:23;;;;;;;;;;;19.30;43.80;;;;;;4996739;28;19929;-54
2023/04/13 04:18:48;;;;;;;;;;;19.30;43.80;;;;;;4991565;28;19918;-54
2023/04/13 04:21:14;;;;;;;;;;;19.30;43.80;;;;;;4992411;28;19953;-54
2023/04/13 04:23:39;;;;;;;;;;;19.30;43.80;;;;;;4991116;28;19922;-54
2023/04/13 04:26:05;;;;;;;;;;;19.30;43.80;;;;;;5004456;28;19929;-54
2023/04/13 04:28:37;;;;;;;;;;;19.30;43.80;;;;;;4976412;28;20374;-54
2023/04/13 04:31:03;;;;;;;;;;;19.30;43.80;;;;;;5005355;28;19914;-54
2023/04/13 04:33:29;;;;;;;;;;;19.30;43.80;;;;;;5007734;28;20484;-54
2023/04/13 04:35:55;;;;;;;;;;;19.30;43.70;;;;;;4996193;28;20017;-54
2023/04/13 04:38:23;;;;;;;;;;;19.30;43.60;;;;;;4988885;28;20589;-54
2023/04/13 04:40:49;;;;;;;;;;;19.30;43.50;;;;;;4983655;28;19914;-54
2023/04/13 04:43:14;;;;;;;;;;;19.30;43.70;;;;;;4988305;28;20363;-54
2023/04/13 04:45:42;;;;;;;;;;;19.20;43.70;;;;;;4999309;28;19917;-54
2023/04/13 04:48:10;;;;;;;;;;;19.20;43.70;;;;;;4989234;28;19914;-54
2023/04/13 04:50:36;;;;;;;;;;;19.10;43.70;;;;;;4985254;28;20235;-54
2023/04/13 04:53:02;;;;;;;;;;;19.00;43.80;;;;;;4987976;28;19929;-54
2023/04/13 04:55:27;;;;;;;;;;;19.00;43.70;;;;;;4993245;28;19961;-54
2023/04/13 04:57:53;;;;;;;;;;;19.10;43.70;;;;;;4994230;28;19961;-54
2023/04/13 05:00:18;;;;;;;;;;;19.10;43.70;;;;;;4996647;28;19921;-53
2023/04/13 05:02:45;;;;;;;;;;;19.10;43.70;;;;;;4996651;28;19914;-54
2023/04/13 05:05:10;;;;;;;;;;;19.10;43.70;;;;;;4997491;28;20300;-54
2023/04/13 05:07:37;;;;;;;;;;;19.10;43.70;;;;;;5004486;28;19918;-53
2023/04/13 05:10:03;;;;;;;;;;;19.10;43.70;;;;;;4995385;28;19960;-54
2023/04/13 05:12:28;;;;;;;;;;;19.20;43.70;;;;;;5000175;28;20329;-53
2023/04/13 05:14:53;;;;;;;;;;;19.10;43.70;;;;;;5025438;28;19913;-54
2023/04/13 05:17:19;;;;;;;;;;;19.10;43.70;;;;;;5014448;28;19909;-53
2023/04/13 05:19:45;;;;;;;;;;;19.10;43.70;;;;;;5015373;28;20008;-54
2023/04/13 05:22:11;;;;;;;;;;;19.10;43.70;;;;;;5002811;28;19918;-54
2023/04/13 05:24:37;;;;;;;;;;;19.10;43.70;;;;;;5002214;28;19987;-54
2023/04/13 05:27:03;;;;;;;;;;;19.00;43.60;;;;;;5010171;28;20386;-54
2023/04/13 05:29:28;;;;;;;;;;;19.00;43.60;;;;;;5001175;28;19921;-53
2023/04/13 05:31:57;;;;;;;;;;;19.10;43.70;;;;;;5007274;28;19975;-54
2023/04/13 05:34:22;;;;;;;;;;;19.10;43.60;;;;;;5011993;28;20048;-54
2023/04/13 05:36:49;;;;;;;;;;;19.20;43.50;;;;;;5012821;28;20003;-53
2023/04/13 05:39:14;;;;;;;;;;;19.20;43.40;;;;;;5003799;28;19929;-53
2023/04/13 05:41:40;;;;;;;;;;;19.20;43.30;;;;;;4995330;28;19918;-54
2023/04/13 05:44:05;;;;;;;;;;;19.20;43.30;;;;;;4999600;28;20384;-53
2023/04/13 05:46:31;;;;;;;;;;;19.20;43.20;;;;;;5003861;28;19921;-54
2023/04/13 05:48:58;;;;;;;;;;;19.20;43.20;;;;;;4989441;28;19918;-55
2023/04/13 05:51:24;;;;;;;;;;;19.20;43.30;;;;;;4996533;28;19965;-54
2023/04/13 05:53:49;;;;;;;;;;;19.20;43.50;;;;;;4996354;28;19949;-53
2023/04/13 05:56:15;;;;;;;;;;;19.10;43.70;;;;;;4988010;28;19921;-53
2023/04/13 05:58:40;;;;;;;;;;;19.10;43.90;;;;;;4993442;28;19920;-53
2023/04/13 06:01:07;;;;;;;;;;;19.00;43.60;;;;;;4997667;28;20256;-54
2023/04/13 06:03:33;;;;;;;;;;;19.00;43.60;;;;;;4999991;28;19921;-54
2023/04/13 06:05:59;;;;;;;;;;;19.00;43.60;;;;;;4995812;28;20056;-53
2023/04/13 06:08:31;;;;;;;;;;;18.90;43.60;;;;;;5037577;28;20492;-53
2023/04/13 06:10:59;;;;;;;;;;;18.90;43.60;;;;;;5047708;28;20042;-53
2023/04/13 06:13:25;;;;;;;;;;;18.90;43.60;;;;;;5014746;28;19932;-54
2023/04/13 06:15:51;;;;;;;;;;;18.90;43.50;;;;;;5002752;28;20025;-53
2023/04/13 06:18:17;;;;;;;;;;;18.90;43.60;;;;;;5011222;28;20409;-53
2023/04/13 06:20:42;;;;;;;;;;;18.90;43.80;;;;;;4997654;28;20008;-54
2023/04/13 06:23:08;;;;;;;;;;;18.90;43.80;;;;;;5007582;28;20004;-54
2023/04/13 06:25:34;;;;;;;;;;;18.90;43.70;;;;;;5008169;28;19918;-55
2023/04/13 06:28:00;;;;;;;;;;;18.90;43.70;;;;;;5000475;28;20433;-54
2023/04/13 06:30:25;;;;;;;;;;;18.90;43.80;;;;;;5011556;28;19924;-54
2023/04/13 06:32:51;;;;;;;;;;;18.90;43.70;;;;;;5001251;28;19914;-54
2023/04/13 06:35:16;;;;;;;;;;;18.80;43.80;;;;;;4994282;28;19961;-53
2023/04/13 06:37:42;;;;;;;;;;;18.80;43.80;;;;;;4996241;28;19945;-54
2023/04/13 06:40:11;;;;;;;;;;;18.80;43.70;;;;;;5006953;28;19928;-53
2023/04/13 06:42:40;;;;;;;;;;;18.80;43.80;;;;;;4993783;28;19981;-54
2023/04/13 06:45:09;;;;;;;;;;;18.80;43.80;;;;;;4990678;28;19926;-55
2023/04/13 06:47:35;;;;;;;;;;;18.90;43.70;;;;;;5009860;28;20262;-53
2023/04/13 06:50:02;;;;;;;;;;;19.00;43.60;;;;;;4984044;28;20529;-54
2023/04/13 06:52:27;;;;;;;;;;;19.00;43.60;;;;;;4989068;28;19918;-54
2023/04/13 06:54:53;;;;;;;;;;;19.00;43.60;;;;;;4984030;28;19918;-54
2023/04/13 06:57:18;;;;;;;;;;;18.80;43.60;;;;;;4986548;28;19913;-54
2023/04/13 06:59:44;;;;;;;;;;;18.80;43.90;;;;;;5012875;28;19913;-54
2023/04/13 07:02:09;;;;;;;;;;;18.70;43.90;;;;;;5004870;28;19917;-54
2023/04/13 07:04:36;;;;;;;;;;;18.70;44.00;;;;;;4987800;28;20397;-53
2023/04/13 07:07:01;;;;;;;;;;;18.70;44.10;;;;;;4978615;28;19910;-54
2023/04/13 07:09:27;;;;;;;;;;;18.70;44.10;;;;;;4997195;28;20405;-54
2023/04/13 07:11:52;;;;;;;;;;;18.70;44.00;;;;;;5013466;28;20016;-55
2023/04/13 07:14:18;;;;;;;;;;;18.80;44.20;;;;;;4993412;28;19918;-54
2023/04/13 07:16:43;;;;;;;;;;;18.80;44.20;;;;;;4986564;28;19920;-54
2023/04/13 07:19:08;;;;;;;;;;;18.70;44.30;;;;;;4988412;28;19914;-54
2023/04/13 07:21:34;;;;;;;;;;;18.80;44.20;;;;;;4988506;28;20414;-54
2023/04/13 07:24:00;;;;;;;;;;;18.80;44.40;;;;;;4995081;28;19922;-54
2023/04/13 07:26:26;;;;;;;;;;;18.80;44.40;;;;;;4993907;28;19918;-54
2023/04/13 07:28:51;;;;;;;;;;;18.80;44.50;;;;;;4993580;28;19910;-54
2023/04/13 07:31:17;;;;;;;;;;;18.80;44.60;;;;;;4990316;28;20000;-54
2023/04/13 07:33:42;;;;;;;;;;;18.80;44.60;;;;;;4993282;28;19921;-54
2023/04/13 07:36:08;;;;;;;;;;;18.70;44.60;;;;;;5002295;28;19922;-55
2023/04/13 07:38:33;;;;;;;;;;;18.70;44.70;;;;;;5019735;28;19933;-54
2023/04/13 07:40:59;;;;;;;;;;;18.80;44.50;;;;;;4988746;28;19964;-54
2023/04/13 07:43:27;;;;;;;;;;;18.70;44.60;;;;;;5005413;28;20275;-54
2023/04/13 07:45:53;;;;;;;;;;;18.70;44.80;;;;;;4981842;28;19914;-54
2023/04/13 07:48:18;;;;;;;;;;;18.70;44.60;;;;;;4984840;28;20016;-54
2023/04/13 07:50:44;;;;;;;;;;;18.80;44.80;;;;;;4997382;28;19913;-55
2023/04/13 07:53:09;;;;;;;;;;;18.70;44.40;;;;;;4987486;28;20402;-55
2023/04/13 07:55:35;;;;;;;;;;;18.80;44.40;;;;;;4993704;28;19967;-54
2023/04/13 07:58:01;;;;;;;;;;;18.80;44.20;;;;;;5012103;28;19910;-54
2023/04/13 08:00:26;;;;;;;;;;;18.90;44.40;;;;;;4999458;28;19945;-54
2023/04/13 08:02:53;;;;;;;;;;;18.80;44.40;;;;;;4995372;28;20434;-55
2023/04/13 08:05:18;;;;;;;;;;;18.80;44.40;;;;;;4990802;28;20123;-54
2023/04/13 08:07:45;;;;;;;;;;;18.80;44.50;;;;;;4990208;28;19975;-55
2023/04/13 08:10:11;;;;;;;;;;;18.80;44.60;;;;;;4985095;28;20013;-54
2023/04/13 08:12:36;;;;;;;;;;;18.80;44.70;;;;;;4990881;28;20009;-54
2023/04/13 08:15:02;;;;;;;;;;;18.80;44.60;;;;;;4997530;28;20286;-54
2023/04/13 08:17:27;;;;;;;;;;;19.10;44.70;;;;;;4992453;28;19952;-53
2023/04/13 08:19:53;;;;;;;;;;;20.10;43.50;;;;;;4981107;28;20263;-54
2023/04/13 08:22:18;;;;;;;;;;;20.90;41.80;;;;;;4988540;28;19922;-53
2023/04/13 08:24:44;;;;;;;;;;;21.50;40.90;;;;;;4979995;28;21519;-54
2023/04/13 08:27:10;;;;;;;;;;;21.80;40.60;;;;;;4986893;28;19917;-53
2023/04/13 08:29:35;;;;;;;;;;;21.70;40.70;;;;;;4989956;28;19918;-54
2023/04/13 08:32:01;;;;;;;;;;;21.50;40.90;;;;;;4984823;28;19921;-53
2023/04/13 08:34:26;;;;;;;;;;;21.60;41.10;;;;;;4986893;28;20330;-53
2023/04/13 08:36:53;;;;;;;;;;;21.80;40.60;;;;;;4986261;28;19914;-55
2023/04/13 08:39:20;;;;;;;;;;;22.00;40.20;;;;;;4985701;28;19930;-55
2023/04/13 08:41:46;;;;;;;;;;;22.30;39.80;;;;;;4981916;28;19918;-54
2023/04/13 08:44:12;;;;;;;;;;;22.40;39.60;;;;;;4983274;28;19981;-55
2023/04/13 08:46:38;;;;;;;;;;;22.60;39.20;;;;;;4982802;28;19914;-54
2023/04/13 08:49:04;;;;;;;;;;;22.60;39.20;;;;;;4979841;28;20365;-54
2023/04/13 08:51:30;;;;;;;;;;;22.50;39.20;;;;;;5012498;28;19956;-55
2023/04/13 08:53:57;;;;;;;;;;;22.60;39.30;;;;;;4984619;28;20783;-55
2023/04/13 08:56:22;;;;;;;;;;;22.70;39.10;;;;;;4988454;28;20428;-55
2023/04/13 08:58:48;;;;;;;;;;;22.80;39.00;;;;;;5023622;28;20099;-55
2023/04/13 09:01:14;;;;;;;;;;;22.90;38.80;;;;;;4995650;28;19914;-55
2023/04/13 09:03:59;;;;;;;;;;;23.00;38.60;;;;;;5000548;28;20449;-54
2023/04/13 09:06:27;;;;;;;;;;;23.10;38.60;;;;;;5000221;28;19914;-55
2023/04/13 09:08:54;;;;;;;;;;;23.10;38.70;;;;;;4991402;28;19913;-54
2023/04/13 09:11:20;;;;;;;;;;;23.20;38.40;;;;;;5004372;28;19969;-55
2023/04/13 09:13:49;;;;;;;;;;;23.20;38.40;;;;;;4991866;28;19921;-55
2023/04/13 09:16:15;;;;;;;;;;;23.10;38.30;;;;;;4993310;28;19914;-54
2023/04/13 09:18:54;;;;;;;;;;;23.00;38.60;;;;;;4996262;28;19914;-55
2023/04/13 09:21:20;;;;;;;;;;;22.80;38.80;;;;;;4987699;28;19929;-55
2023/04/13 09:23:52;;;;;;;;;;;22.60;39.40;;;;;;4987574;28;19964;-54
2023/04/13 09:26:19;;;;;;;;;;;22.40;39.70;;;;;;4985679;28;20381;-55
2023/04/13 09:28:48;;;;;;;;;;;22.30;39.80;;;;;;4999011;28;20016;-54
2023/04/13 09:31:14;;;;;;;;;;;22.40;39.80;;;;;;4977367;28;20009;-55
2023/04/13 09:33:50;;;;;;;;;;;22.50;39.80;;;;;;4985893;28;20000;-54
2023/04/13 09:36:16;;;;;;;;;;;22.50;39.80;;;;;;4975567;28;19957;-54
2023/04/13 09:38:42;;;;;;;;;;;22.40;39.90;;;;;;4982508;28;20048;-54
2023/04/13 09:41:08;;;;;;;;;;;22.30;40.00;;;;;;4987675;28;19918;-54
2023/04/13 09:43:34;;;;;;;;;;;22.30;40.10;;;;;;4986155;28;20324;-54
2023/04/13 09:46:00;;;;;;;;;;;22.30;40.10;;;;;;4987915;28;19914;-54
2023/04/13 09:48:25;;;;;;;;;;;22.50;39.90;;;;;;4986767;28;20015;-54
2023/04/13 09:50:58;;;;;;;;;;;22.70;39.50;;;;;;4993633;28;19914;-53
2023/04/13 09:53:23;;;;;;;;;;;22.80;39.40;;;;;;4987556;28;19918;-53
2023/04/13 09:55:55;;;;;;;;;;;22.80;39.30;;;;;;4998829;28;19928;-52
2023/04/13 09:58:20;;;;;;;;;;;22.90;39.20;;;;;;4997718;28;19984;-53
2023/04/13 10:00:46;;;;;;;;;;;23.00;39.10;;;;;;4986436;28;20382;-53
2023/04/13 10:03:12;;;;;;;;;;;23.10;39.00;;;;;;4989192;28;20271;-53
2023/04/13 10:05:38;;;;;;;;;;;23.20;38.80;;;;;;4996365;28;19948;-53
2023/04/13 10:08:04;;;;;;;;;;;23.20;38.80;;;;;;4987882;28;20004;-54
2023/04/13 10:10:29;;;;;;;;;;;23.30;38.70;;;;;;4990683;28;19914;-53
2023/04/13 10:12:55;;;;;;;;;;;23.30;38.60;;;;;;4991639;28;20290;-54
2023/04/13 10:15:39;;;;;;;;;;;23.40;38.50;;;;;;4989647;28;19933;-53
2023/04/13 10:18:05;;;;;;;;;;;23.40;38.50;;;;;;4992128;28;20021;-53
2023/04/13 10:20:30;;;;;;;;;;;23.50;38.50;;;;;;4987296;28;20004;-54
2023/04/13 10:22:56;;;;;;;;;;;23.50;38.50;;;;;;5030710;28;19953;-54
2023/04/13 10:25:21;;;;;;;;;;;23.40;38.40;;;;;;5006160;28;20286;-54
2023/04/13 10:27:57;;;;;;;;;;;23.30;38.60;;;;;;4992409;28;19917;-53
2023/04/13 10:30:22;;;;;;;;;;;23.10;39.00;;;;;;4988593;28;20359;-54
2023/04/13 10:32:48;;;;;;;;;;;23.00;39.00;;;;;;4985492;28;19933;-54
2023/04/13 10:35:14;;;;;;;;;;;23.10;38.90;;;;;;4989067;28;19918;-54
2023/04/13 10:37:41;;;;;;;;;;;23.00;39.10;;;;;;4987658;28;20314;-53
2023/04/13 10:40:09;;;;;;;;;;;22.80;39.60;;;;;;4988473;28;19925;-53
2023/04/13 10:42:37;;;;;;;;;;;22.80;39.70;;;;;;4984039;28;21882;-53
2023/04/13 10:45:03;;;;;;;;;;;22.90;39.90;;;;;;4991228;28;19918;-53
2023/04/13 10:47:34;;;;;;;;;;;22.70;40.00;;;;;;4986695;28;19920;-54
2023/04/13 10:50:00;;;;;;;;;;;22.40;40.60;;;;;;4999243;28;19936;-54
2023/04/13 10:52:25;;;;;;;;;;;22.20;41.10;;;;;;5012527;28;19918;-53
2023/04/13 10:54:50;;;;;;;;;;;22.30;41.20;;;;;;4987289;28;19913;-53
2023/04/13 10:57:16;;;;;;;;;;;22.60;40.80;;;;;;4989097;28;20007;-53
2023/04/13 10:59:48;;;;;;;;;;;22.90;40.20;;;;;;4992199;28;19918;-54
2023/04/13 11:02:15;;;;;;;;;;;23.20;39.60;;;;;;4996019;28;19918;-53
2023/04/13 11:04:41;;;;;;;;;;;23.40;39.10;;;;;;4997841;28;19922;-53
2023/04/13 11:07:08;;;;;;;;;;;23.60;38.90;;;;;;5004496;28;19918;-53
2023/04/13 11:09:33;;;;;;;;;;;23.70;38.90;;;;;;4990903;28;19913;-54
2023/04/13 11:11:59;;;;;;;;;;;23.70;38.70;;;;;;4991631;28;19921;-54
2023/04/13 11:14:24;;;;;;;;;;;23.80;38.50;;;;;;4995687;28;19922;-54
2023/04/13 11:16:50;;;;;;;;;;;23.80;38.50;;;;;;4994082;28;19929;-53
2023/04/13 11:19:15;;;;;;;;;;;23.80;38.60;;;;;;4995914;28;19917;-53
2023/04/13 11:21:43;;;;;;;;;;;23.80;38.60;;;;;;4996978;28;19913;-53
2023/04/13 11:24:09;;;;;;;;;;;23.80;38.60;;;;;;4995601;28;19959;-53
2023/04/13 11:26:36;;;;;;;;;;;23.80;38.70;;;;;;4985510;28;19918;-54
2023/04/13 11:29:02;;;;;;;;;;;23.80;38.50;;;;;;4993631;28;19913;-55
2023/04/13 11:31:36;;;;;;;;;;;23.80;38.40;;;;;;4987408;28;19917;-53
2023/04/13 11:34:04;;;;;;;;;;;23.80;38.80;;;;;;4982823;28;19960;-54
2023/04/13 11:36:29;;;;;;;;;;;23.70;39.00;;;;;;4985289;28;19948;-54
2023/04/13 11:38:54;;;;;;;;;;;23.50;39.40;;;;;;4983907;28;19925;-53
2023/04/13 11:41:20;;;;;;;;;;;23.40;39.60;;;;;;4982492;28;20285;-54
2023/04/13 11:43:47;;;;;;;;;;;23.50;39.60;;;;;;4984269;28;20407;-53
2023/04/13 11:46:14;;;;;;;;;;;23.70;39.50;;;;;;5016811;28;19929;-52
2023/04/13 11:48:39;;;;;;;;;;;23.80;39.00;;;;;;4983598;28;19946;-53
2023/04/13 11:51:04;;;;;;;;;;;23.90;38.80;;;;;;5017904;28;20547;-53
2023/04/13 11:53:34;;;;;;;;;;;24.00;38.70;;;;;;5023182;28;19968;-53
2023/04/13 11:55:59;;;;;;;;;;;24.00;38.60;;;;;;4980580;28;19922;-53
2023/04/13 11:58:25;;;;;;;;;;;24.00;38.70;;;;;;4998776;28;19917;-52
2023/04/13 12:00:53;;;;;;;;;;;24.00;38.50;;;;;;4981370;28;19918;-53
2023/04/13 12:03:18;;;;;;;;;;;24.00;38.50;;;;;;4981969;28;19914;-52
2023/04/13 12:05:44;;;;;;;;;;;24.00;38.60;;;;;;4984532;28;19929;-51
2023/04/13 12:08:20;;;;;;;;;;;23.80;38.90;;;;;;4985499;28;19984;-52
2023/04/13 12:10:45;;;;;;;;;;;23.70;39.30;;;;;;4984794;28;19925;-54
2023/04/13 12:13:12;;;;;;;;;;;23.60;39.20;;;;;;5017061;28;19913;-53
2023/04/13 12:15:38;;;;;;;;;;;23.50;39.30;;;;;;4985326;28;19922;-53
2023/04/13 12:18:03;;;;;;;;;;;23.60;39.20;;;;;;5016888;28;19917;-52
2023/04/13 12:20:33;;;;;;;;;;;23.70;39.00;;;;;;4987095;28;19955;-53
2023/04/13 12:22:58;;;;;;;;;;;23.70;38.70;;;;;;4991574;28;20440;-53
2023/04/13 12:25:24;;;;;;;;;;;23.90;38.30;;;;;;5023419;28;19917;-53
2023/04/13 12:27:50;;;;;;;;;;;24.00;38.00;;;;;;4990832;28;19918;-53
2023/04/13 12:30:15;;;;;;;;;;;24.10;38.10;;;;;;4989358;28;20084;-53
2023/04/13 12:32:41;;;;;;;;;;;24.30;38.00;;;;;;4986978;28;19922;-53
2023/04/13 12:35:07;;;;;;;;;;;24.30;38.00;;;;;;4985288;28;19918;-53
2023/04/13 12:37:33;;;;;;;;;;;24.30;37.90;;;;;;4985546;28;20041;-53
2023/04/13 12:39:58;;;;;;;;;;;24.30;37.90;;;;;;4989169;28;20012;-53
2023/04/13 12:42:24;;;;;;;;;;;24.30;38.00;;;;;;4995356;28;19922;-53
2023/04/13 12:44:50;;;;;;;;;;;24.30;38.30;;;;;;4988090;28;19921;-53
2023/04/13 12:47:15;;;;;;;;;;;24.00;38.40;;;;;;4991976;28;20381;-53
2023/04/13 12:49:41;;;;;;;;;;;24.00;38.70;;;;;;4988468;28;19981;-53
2023/04/13 12:52:06;;;;;;;;;;;24.00;38.50;;;;;;4980847;28;20052;-52
2023/04/13 12:54:31;;;;;;;;;;;24.10;38.40;;;;;;4984897;28;19956;-53
2023/04/13 12:56:58;;;;;;;;;;;24.30;38.30;;;;;;4987456;28;19933;-53
2023/04/13 12:59:24;;;;;;;;;;;24.30;38.10;;;;;;4983951;28;19928;-53
2023/04/13 13:01:49;;;;;;;;;;;24.30;38.00;;;;;;4980482;28;19917;-53
2023/04/13 13:04:15;;;;;;;;;;;24.40;37.90;;;;;;4978969;28;20413;-53
2023/04/13 13:06:41;;;;;;;;;;;24.40;37.70;;;;;;4984001;28;19964;-53
2023/04/13 13:09:06;;;;;;;;;;;24.60;37.40;;;;;;4989277;28;19918;-52
2023/04/13 13:11:32;;;;;;;;;;;24.70;37.40;;;;;;4991140;28;19910;-53
2023/04/13 13:13:57;;;;;;;;;;;24.70;37.40;;;;;;4998876;28;20442;-53
2023/04/13 13:16:23;;;;;;;;;;;24.60;37.30;;;;;;4991700;28;19945;-52
2023/04/13 13:18:48;;;;;;;;;;;24.60;37.30;;;;;;4991394;28;19921;-52
2023/04/13 13:21:14;;;;;;;;;;;24.70;37.40;;;;;;4995809;28;20004;-52
2023/04/13 13:23:40;;;;;;;;;;;24.70;37.30;;;;;;4996649;28;19969;-53
2023/04/13 13:26:05;;;;;;;;;;;24.70;37.40;;;;;;5022977;28;20378;-53
2023/04/13 13:28:31;;;;;;;;;;;24.60;37.30;;;;;;4993455;28;20311;-53
2023/04/13 13:30:56;;;;;;;;;;;24.60;37.50;;;;;;4997139;28;19918;-53
2023/04/13 13:33:22;;;;;;;;;;;24.60;37.30;;;;;;4994169;28;20052;-53
2023/04/13 13:35:47;;;;;;;;;;;24.50;37.40;;;;;;4984947;28;19960;-53
2023/04/13 13:38:12;;;;;;;;;;;24.60;37.30;;;;;;4995248;28;19960;-53
2023/04/13 13:40:38;;;;;;;;;;;24.70;37.40;;;;;;4984256;28;19941;-53
2023/04/13 13:43:03;;;;;;;;;;;24.70;37.40;;;;;;4987297;28;19921;-52
2023/04/13 13:45:29;;;;;;;;;;;24.80;37.40;;;;;;4978276;28;19917;-55
2023/04/13 13:47:56;;;;;;;;;;;24.80;37.20;;;;;;4996532;28;19952;-52
2023/04/13 13:50:21;;;;;;;;;;;24.70;37.40;;;;;;4994582;28;20324;-53
2023/04/13 13:52:47;;;;;;;;;;;24.50;37.50;;;;;;4992745;28;19914;-53
2023/04/13 13:55:12;;;;;;;;;;;24.30;38.10;;;;;;5019864;28;20310;-53
2023/04/13 13:57:38;;;;;;;;;;;24.30;38.40;;;;;;4989401;28;20479;-54
2023/04/13 14:00:12;;;;;;;;;;;24.40;38.20;;;;;;4985408;28;19997;-54
2023/04/13 14:02:37;;;;;;;;;;;24.40;38.30;;;;;;4995424;28;19913;-52
2023/04/13 14:05:03;;;;;;;;;;;24.30;38.20;;;;;;4986650;28;19926;-53
2023/04/13 14:07:28;;;;;;;;;;;24.40;37.90;;;;;;4981291;28;20409;-52
2023/04/13 14:09:54;;;;;;;;;;;24.30;38.50;;;;;;4993327;28;19914;-52
2023/04/13 14:12:19;;;;;;;;;;;24.00;38.80;;;;;;4994924;28;19914;-52